YSEN weather

Serpentine Airport
Western Australia, Australia

Public forecast

Using degrees Celsius for public forecast. Weather courtesy of forecast.io.

METAR (pilot weather report)

Closest report is Perth Jandakot Airport, 17.9 nm (33.1 km) N. Retrieved 2019/04/23 21:30 UTC (24 minutes ago):

YPJT 232130Z AUTO 11010KT 9999 // NCD 16/10 Q1026 RF00.0/000.0

TAF (pilot weather forecast)

Closest forecast is Perth Jandakot Airport, 17.9 nm (33.1 km) N. Retrieved 2019/04/23 18:00 UTC (4 hours ago):

TAF YPJT 231616Z 2318/2412 18005KT CAVOK FM240000 11010KT CAVOK